Time;durP1;ratioP1;P1;durP2;ratioP2;P2;SDS_P1;SDS_P2;PMS_P1;PMS_P2;Temp;Humidity;BMP_temperature;BMP_pressure;BME280_temperature;BME280_humidity;BME280_pressure;Samples;Min_cycle;Max_cycle;Signal;HPM_P1;HPM_P2
2021/07/13 00:00:32;;;;;;;14.90;6.08;;;;;;;19.78;100.00;100912.22;1683777;85;21606;-79
2021/07/13 00:03:01;;;;;;;14.13;5.53;;;;;;;19.76;100.00;100907.61;1690213;84;21524;-76
2021/07/13 00:05:28;;;;;;;14.95;5.00;;;;;;;19.72;100.00;100910.73;1690738;84;20990;-79
2021/07/13 00:07:55;;;;;;;15.25;5.53;;;;;;;19.73;100.00;100907.67;1690293;84;21494;-79
2021/07/13 00:10:25;;;;;;;22.00;5.33;;;;;;;19.72;100.00;100902.53;1689953;84;21104;-80
2021/07/13 00:12:52;;;;;;;9.40;5.05;;;;;;;19.68;100.00;100895.52;1690465;84;21058;-80
2021/07/13 00:15:23;;;;;;;14.55;5.92;;;;;;;19.66;100.00;100898.33;1690251;84;21127;-77
2021/07/13 00:17:52;;;;;;;17.12;5.62;;;;;;;19.57;100.00;100896.88;1669355;86;21026;-80
2021/07/13 00:20:19;;;;;;;18.67;5.35;;;;;;;19.51;100.00;100893.46;1668977;86;21157;-85
2021/07/13 00:22:45;;;;;;;11.65;5.70;;;;;;;19.49;100.00;100884.76;1668979;86;21018;-79
2021/07/13 00:25:13;;;;;;;17.23;6.05;;;;;;;19.48;100.00;100879.05;1669078;86;21041;-81
2021/07/13 00:27:41;;;;;;;11.90;5.67;;;;;;;19.51;100.00;100881.16;1671406;85;21061;-80
2021/07/13 00:30:11;;;;;;;12.63;6.50;;;;;;;19.50;100.00;100887.76;1674103;85;21021;-80
2021/07/13 00:32:38;;;;;;;16.17;5.37;;;;;;;19.51;100.00;100891.30;1674256;85;21332;-79
2021/07/13 00:35:06;;;;;;;12.20;5.37;;;;;;;19.48;100.00;100894.09;1673865;85;21061;-79
2021/07/13 00:37:32;;;;;;;10.80;5.20;;;;;;;19.42;100.00;100895.34;1674090;85;21671;-82
2021/07/13 00:39:58;;;;;;;11.48;5.92;;;;;;;19.35;100.00;100895.52;1674141;85;21046;-79
2021/07/13 00:42:24;;;;;;;11.00;5.20;;;;;;;19.29;100.00;100898.40;1674089;85;20918;-79
2021/07/13 00:44:50;;;;;;;11.85;5.45;;;;;;;19.25;100.00;100897.39;1674210;85;21920;-79
2021/07/13 00:47:20;;;;;;;16.00;5.15;;;;;;;19.20;100.00;100885.77;1674229;85;21030;-79
2021/07/13 00:49:48;;;;;;;25.25;6.30;;;;;;;19.20;100.00;100891.23;1690622;84;21088;-79
2021/07/13 00:52:15;;;;;;;18.48;6.15;;;;;;;19.20;100.00;100895.34;1691064;84;21145;-79
2021/07/13 00:54:43;;;;;;;13.70;5.85;;;;;;;19.15;100.00;100891.35;1690941;84;21061;-81
2021/07/13 00:57:12;;;;;;;11.68;5.90;;;;;;;19.10;100.00;100896.39;1603412;89;21608;-80
2021/07/13 00:59:40;;;;;;;11.08;5.92;;;;;;;19.05;100.00;100897.87;1555960;92;21032;-80
2021/07/13 01:02:09;;;;;;;14.18;6.15;;;;;;;19.02;100.00;100892.47;1596069;89;21037;-79
2021/07/13 01:04:39;;;;;;;13.88;6.20;;;;;;;19.00;100.00;100892.52;1555908;91;21107;-79
2021/07/13 01:07:13;;;;;;;16.80;5.70;;;;;;;18.98;100.00;100888.75;1596352;89;21057;-79
2021/07/13 01:09:59;;;;;;;10.55;5.75;;;;;;;18.98;100.00;100886.02;1595969;89;21153;-79
2021/07/13 01:13:03;;;;;;;11.95;6.25;;;;;;;18.98;100.00;100876.46;1596005;89;21174;-78
2021/07/13 01:15:37;;;;;;;13.83;6.10;;;;;;;18.97;100.00;100885.78;1589374;89;21036;-79
2021/07/13 01:18:22;;;;;;;15.53;6.15;;;;;;;18.95;100.00;100890.73;1587665;90;21044;-79
2021/07/13 01:21:08;;;;;;;11.93;5.92;;;;;;;18.87;100.00;100894.76;1587881;90;21617;-80
2021/07/13 01:24:09;;;;;;;13.75;6.70;;;;;;;18.84;100.00;100888.79;1539900;91;21982;-79
2021/07/13 01:26:47;;;;;;;12.93;6.97;;;;;;;18.84;100.00;100891.52;1515278;94;21121;-79
2021/07/13 01:29:16;;;;;;;13.93;7.05;;;;;;;18.88;100.00;100878.05;1507615;94;21089;-78
2021/07/13 01:31:46;;;;;;;16.90;7.45;;;;;;;18.88;100.00;100886.24;1507738;95;21208;-80
2021/07/13 01:34:25;;;;;;;16.82;7.58;;;;;;;18.86;100.00;100886.33;1507787;95;21073;-81
2021/07/13 01:36:57;;;;;;;16.23;7.12;;;;;;;18.86;100.00;100889.86;1507849;95;21140;-81
2021/07/13 01:39:25;;;;;;;16.05;6.25;;;;;;;18.82;100.00;100885.58;1507672;95;21549;-81
2021/07/13 01:41:55;;;;;;;18.60;6.33;;;;;;;18.78;100.00;100890.02;1507738;95;21101;-81
2021/07/13 01:44:23;;;;;;;17.40;6.50;;;;;;;18.79;100.00;100889.45;1507647;95;21175;-80
2021/07/13 01:46:53;;;;;;;15.72;6.95;;;;;;;18.79;100.00;100885.36;1498669;95;21292;-79
2021/07/13 01:49:22;;;;;;;20.17;6.95;;;;;;;18.82;100.00;100882.85;1491609;95;21645;-79
2021/07/13 01:51:51;;;;;;;14.58;7.35;;;;;;;18.87;100.00;100890.09;1491678;96;21119;-77
2021/07/13 01:54:20;;;;;;;16.32;6.80;;;;;;;18.88;100.00;100888.97;1547176;90;21053;-77
2021/07/13 01:56:49;;;;;;;27.37;7.70;;;;;;;18.87;100.00;100888.73;1586931;90;21096;-78
2021/07/13 01:59:18;;;;;;;14.40;6.25;;;;;;;18.85;100.00;100900.52;1586983;90;21065;-79
2021/07/13 02:01:47;;;;;;;12.63;7.05;;;;;;;18.84;100.00;100900.27;1572214;90;21616;-79
2021/07/13 02:04:15;;;;;;;15.13;7.65;;;;;;;18.85;100.00;100904.61;1666057;85;20997;-79
2021/07/13 02:06:43;;;;;;;11.80;6.60;;;;;;;18.87;100.00;100903.75;1683929;85;21001;-80
2021/07/13 02:09:13;;;;;;;10.48;5.67;;;;;;;18.87;100.00;100901.59;1683772;85;20978;-77
2021/07/13 02:11:44;;;;;;;13.28;7.20;;;;;;;18.85;100.00;100903.25;1684053;85;20997;-83
2021/07/13 02:14:12;;;;;;;11.20;6.60;;;;;;;18.79;100.00;100908.02;1683280;84;21909;-80
2021/07/13 02:16:39;;;;;;;16.87;6.92;;;;;;;18.80;100.00;100912.38;1679451;85;21496;-79
2021/07/13 02:19:06;;;;;;;15.13;8.00;;;;;;;18.84;100.00;100914.73;1684039;84;21652;-77
2021/07/13 02:21:33;;;;;;;16.93;7.40;;;;;;;18.91;100.00;100908.03;1683733;85;21061;-80
2021/07/13 02:24:01;;;;;;;14.45;7.17;;;;;;;18.97;100.00;100909.00;1683547;84;21053;-80
2021/07/13 02:26:53;;;;;;;11.83;6.42;;;;;;;19.02;100.00;100903.95;1683753;85;21143;-79
2021/07/13 02:29:42;;;;;;;15.47;7.30;;;;;;;19.04;100.00;100905.27;1615855;88;21061;-76
2021/07/13 02:32:19;;;;;;;11.35;6.62;;;;;;;19.05;100.00;100908.80;1540883;93;21077;-79
2021/07/13 02:34:48;;;;;;;12.58;7.12;;;;;;;19.08;100.00;100904.65;1470838;97;21120;-79
2021/07/13 02:37:17;;;;;;;13.60;7.40;;;;;;;19.13;100.00;100911.37;1470981;97;21225;-79
2021/07/13 02:39:44;;;;;;;16.62;8.13;;;;;;;19.21;100.00;100903.80;1470608;97;22025;-78
2021/07/13 02:42:11;;;;;;;19.62;8.78;;;;;;;19.30;100.00;100900.56;1470950;97;21111;-82
2021/07/13 02:44:44;;;;;;;21.50;9.05;;;;;;;19.39;100.00;100902.80;1471035;97;21620;-80
2021/07/13 02:47:13;;;;;;;14.95;8.05;;;;;;;19.47;100.00;100899.85;1470929;97;21644;-80
2021/07/13 02:49:47;;;;;;;18.17;8.68;;;;;;;19.54;100.00;100900.80;1470883;97;21192;-78
2021/07/13 02:52:21;;;;;;;17.80;8.23;;;;;;;19.61;100.00;100904.69;1470987;97;21204;-81
2021/07/13 02:54:53;;;;;;;22.15;8.20;;;;;;;19.74;100.00;100905.77;1441669;99;21569;-80
2021/07/13 02:57:20;;;;;;;22.22;7.92;;;;;;;19.95;100.00;100904.09;1442085;98;21203;-78
2021/07/13 02:59:47;;;;;;;28.17;8.20;;;;;;;20.16;100.00;100900.80;1441982;99;21088;-79
2021/07/13 03:02:15;;;;;;;16.57;7.85;;;;;;;20.28;100.00;100897.45;1441970;99;21654;-77
2021/07/13 03:04:42;;;;;;;20.37;9.30;;;;;;;20.33;100.00;100898.11;1441724;99;21158;-80
2021/07/13 03:07:10;;;;;;;26.77;8.45;;;;;;;20.41;100.00;100901.44;1523882;91;21028;-79
2021/07/13 03:09:38;;;;;;;26.60;8.45;;;;;;;20.53;100.00;100909.61;1562392;91;21122;-79
2021/07/13 03:12:08;;;;;;;23.60;8.55;;;;;;;20.69;100.00;100911.34;1592832;88;21016;-79
2021/07/13 03:14:39;;;;;;;27.90;9.43;;;;;;;20.87;100.00;100914.34;1631551;88;22153;-78
2021/07/13 03:17:09;;;;;;;21.97;9.85;;;;;;;20.96;100.00;100907.49;1540721;93;21176;-78
2021/07/13 03:19:36;;;;;;;22.17;9.33;;;;;;;21.11;100.00;100904.26;1521088;94;21001;-78
2021/07/13 03:22:05;;;;;;;22.25;9.43;;;;;;;21.29;100.00;100905.05;1521151;94;21131;-82
2021/07/13 03:24:32;;;;;;;21.20;9.35;;;;;;;21.47;100.00;100909.97;1522659;93;21117;-79
2021/07/13 03:26:59;;;;;;;26.12;9.10;;;;;;;21.84;100.00;100913.91;1528921;93;21688;-79
2021/07/13 03:29:26;;;;;;;25.40;10.28;;;;;;;22.38;100.00;100914.74;1530144;92;21627;-79
2021/07/13 03:31:52;;;;;;;23.42;11.45;;;;;;;22.84;100.00;100917.12;1530567;93;21505;-85
2021/07/13 03:34:19;;;;;;;25.92;12.18;;;;;;;23.35;100.00;100915.09;1530577;93;21185;-81
2021/07/13 03:36:48;;;;;;;21.80;11.33;;;;;;;23.72;100.00;100912.48;1530709;93;21084;-77
2021/07/13 03:39:15;;;;;;;20.60;11.03;;;;;;;24.19;100.00;100910.11;1530567;93;21112;-78
2021/07/13 03:41:42;;;;;;;22.25;11.70;;;;;;;24.53;100.00;100903.11;1530830;93;21100;-81
2021/07/13 03:44:09;;;;;;;16.00;10.10;;;;;;;24.82;100.00;100898.67;1530078;93;39809;-80
2021/07/13 03:46:37;;;;;;;18.07;9.83;;;;;;;25.23;100.00;100893.95;1530705;93;21064;-80
2021/07/13 03:49:07;;;;;;;20.90;9.78;;;;;;;25.54;100.00;100893.23;1503347;95;21135;-79
2021/07/13 03:51:44;;;;;;;19.70;10.63;;;;;;;25.69;100.00;100895.78;1509262;93;21065;-79
2021/07/13 03:54:14;;;;;;;17.80;9.00;;;;;;;25.90;100.00;100896.12;1541142;92;21074;-86
2021/07/13 03:56:41;;;;;;;17.45;9.68;;;;;;;26.10;100.00;100896.44;1570085;91;21094;-82
2021/07/13 03:59:08;;;;;;;21.97;9.53;;;;;;;26.44;100.00;100900.95;1569907;91;21126;-83
2021/07/13 04:01:36;;;;;;;15.80;9.80;;;;;;;26.54;100.00;100899.05;1569948;91;21114;-79
2021/07/13 04:04:02;;;;;;;17.17;9.45;;;;;;;26.57;100.00;100898.34;1570016;91;21086;-82
2021/07/13 04:06:30;;;;;;;18.15;8.83;;;;;;;26.70;100.00;100898.41;1570054;91;21126;-83
2021/07/13 04:08:56;;;;;;;15.08;8.50;;;;;;;26.85;100.00;100898.13;1570059;91;21119;-82
2021/07/13 04:11:22;;;;;;;17.15;8.43;;;;;;;26.93;100.00;100899.09;1569911;91;20959;-83
2021/07/13 04:13:49;;;;;;;16.00;8.55;;;;;;;27.39;100.00;100900.03;1581544;89;20912;-83
2021/07/13 04:16:15;;;;;;;16.85;8.73;;;;;;;27.58;100.00;100900.56;1656354;84;20966;-82
2021/07/13 04:18:42;;;;;;;16.23;9.90;;;;;;;27.51;100.00;100906.58;1695049;84;21136;-81
2021/07/13 04:21:09;;;;;;;16.02;9.68;;;;;;;27.81;100.00;100902.58;1665135;86;21070;-78
2021/07/13 04:23:35;;;;;;;16.23;10.32;;;;;;;28.14;100.00;100901.92;1666562;86;21573;-80
2021/07/13 04:26:05;;;;;;;23.02;11.88;;;;;;;28.42;100.00;100895.25;1667589;85;21085;-80
2021/07/13 04:28:31;;;;;;;21.27;11.97;;;;;;;28.35;100.00;100891.73;1667302;84;21014;-81
2021/07/13 04:31:02;;;;;;;18.67;11.40;;;;;;;28.48;100.00;100897.33;1667404;85;22044;-81
2021/07/13 04:33:29;;;;;;;19.98;12.05;;;;;;;28.67;100.00;100902.52;1667548;85;21488;-82
2021/07/13 04:35:55;;;;;;;18.15;11.88;;;;;;;28.80;100.00;100905.28;1667613;85;21022;-82
2021/07/13 04:38:21;;;;;;;24.40;12.23;;;;;;;29.13;100.00;100902.34;1667611;86;21066;-82
2021/07/13 04:40:48;;;;;;;20.60;11.00;;;;;;;29.71;100.00;100903.16;1667487;85;21049;-81
2021/07/13 04:43:14;;;;;;;18.67;11.40;;;;;;;29.87;100.00;100909.24;1667153;86;21270;-80
2021/07/13 04:45:41;;;;;;;21.68;11.85;;;;;;;29.98;100.00;100919.08;1667415;86;21050;-78
2021/07/13 04:48:07;;;;;;;18.27;12.28;;;;;;;30.30;100.00;100911.59;1667655;85;21010;-80
2021/07/13 04:50:34;;;;;;;18.07;12.15;;;;;;;30.33;100.00;100910.22;1667613;85;21015;-79
2021/07/13 04:53:00;;;;;;;24.50;11.48;;;;;;;30.29;100.00;100912.17;1667546;85;21510;-80
2021/07/13 04:55:25;;;;;;;17.10;12.03;;;;;;;30.63;100.00;100910.59;1667382;84;21143;-79
2021/07/13 04:57:51;;;;;;;18.82;11.53;;;;;;;31.09;100.00;100911.43;1667561;86;20971;-80
2021/07/13 05:00:18;;;;;;;19.65;11.18;;;;;;;31.33;94.48;100914.68;1667703;85;20965;-79
2021/07/13 05:02:44;;;;;;;17.48;11.15;;;;;;;31.33;94.48;100914.68;1667597;85;20994;-79
2021/07/13 05:05:11;;;;;;;19.67;11.80;;;;;;;31.43;93.17;100913.92;1667222;86;21458;-81
2021/07/13 05:07:45;;;;;;;22.13;11.65;;;;;;;31.48;89.51;100912.15;1667311;86;21149;-80
2021/07/13 05:10:14;;;;;;;25.85;12.82;;;;;;;31.52;86.46;100913.54;1667410;85;21003;-79
2021/07/13 05:12:40;;;;;;;28.57;12.50;;;;;;;31.50;86.37;100919.49;1667574;85;21113;-81
2021/07/13 05:15:09;;;;;;;28.62;11.50;;;;;;;31.45;81.78;100924.09;1667577;85;21022;-78
2021/07/13 05:17:36;;;;;;;20.75;12.40;;;;;;;31.65;81.41;100923.09;1667313;85;21569;-79
2021/07/13 05:20:06;;;;;;;16.75;11.33;;;;;;;31.80;80.86;100926.13;1667313;86;21112;-79
2021/07/13 05:22:33;;;;;;;22.80;12.05;;;;;;;31.63;81.11;100933.27;1637884;86;21436;-79
2021/07/13 05:25:00;;;;;;;21.20;11.48;;;;;;;31.57;79.98;100933.45;1638118;87;21761;-78
2021/07/13 05:27:26;;;;;;;26.68;12.85;;;;;;;31.60;80.47;100931.27;1638518;87;21414;-79
2021/07/13 05:29:52;;;;;;;27.58;12.45;;;;;;;31.04;78.76;100929.90;1613407;86;21066;-80
2021/07/13 05:32:18;;;;;;;25.68;12.13;;;;;;;30.51;82.95;100923.45;1601967;89;21116;-80
2021/07/13 05:34:44;;;;;;;27.42;13.13;;;;;;;30.10;86.30;100936.84;1591865;89;21067;-79
2021/07/13 05:37:11;;;;;;;19.60;11.55;;;;;;;30.14;91.29;100937.45;1582925;88;20950;-78
2021/07/13 05:39:38;;;;;;;23.60;11.65;;;;;;;30.40;89.68;100942.05;1579620;90;21496;-79
2021/07/13 05:42:04;;;;;;;22.77;11.48;;;;;;;31.04;88.61;100944.42;1579560;90;21638;-79
2021/07/13 05:44:30;;;;;;;20.62;10.93;;;;;;;31.67;83.02;100955.55;1579582;90;21097;-79
2021/07/13 05:46:56;;;;;;;22.22;10.98;;;;;;;31.57;79.59;100953.56;1579190;90;21058;-80
2021/07/13 05:49:22;;;;;;;19.02;10.28;;;;;;;31.23;78.58;100958.00;1575973;90;20918;-78
2021/07/13 05:51:48;;;;;;;16.75;10.93;;;;;;;30.83;80.53;100955.66;1579099;90;20947;-80
2021/07/13 05:54:14;;;;;;;18.73;9.90;;;;;;;30.49;82.60;100957.80;1576089;90;21058;-79
2021/07/13 05:56:40;;;;;;;18.12;10.28;;;;;;;30.17;84.76;100958.92;1579214;90;21537;-78
2021/07/13 05:59:06;;;;;;;17.40;10.82;;;;;;;30.06;88.87;100961.61;1579278;90;20990;-79
2021/07/13 06:01:32;;;;;;;19.25;11.05;;;;;;;29.96;89.84;100958.16;1579404;90;21081;-79
2021/07/13 06:03:57;;;;;;;19.67;9.88;;;;;;;30.41;92.00;100957.54;1579291;90;20915;-80
2021/07/13 06:06:23;;;;;;;17.20;10.10;;;;;;;30.73;86.38;100957.14;1579234;90;21787;-80
2021/07/13 06:08:49;;;;;;;18.32;10.03;;;;;;;30.57;87.29;100953.09;1558955;90;21115;-78
2021/07/13 06:11:15;;;;;;;18.50;10.05;;;;;;;30.64;88.67;100955.91;1579463;90;20906;-77
2021/07/13 06:13:41;;;;;;;19.65;9.93;;;;;;;30.71;88.80;100958.75;1579576;90;20934;-76
2021/07/13 06:16:07;;;;;;;19.42;9.60;;;;;;;30.54;85.22;100958.84;1579124;90;21415;-76
2021/07/13 06:18:33;;;;;;;16.93;9.23;;;;;;;30.68;81.38;100965.06;1589980;87;21584;-77
2021/07/13 06:20:59;;;;;;;17.07;9.28;;;;;;;31.29;79.42;100959.21;1645421;87;21084;-83
2021/07/13 06:23:25;;;;;;;17.77;10.00;;;;;;;32.25;75.82;100961.39;1648489;87;21014;-79
2021/07/13 06:25:51;;;;;;;24.50;9.93;;;;;;;32.61;72.57;100961.36;1648316;87;20982;-79
2021/07/13 06:28:17;;;;;;;21.27;9.93;;;;;;;32.94;67.61;100957.26;1648527;87;20894;-81
2021/07/13 06:30:43;;;;;;;16.93;10.13;;;;;;;33.69;66.61;100958.33;1648279;86;21017;-81
2021/07/13 06:33:09;;;;;;;19.85;10.13;;;;;;;34.34;63.19;100953.02;1648226;87;21305;-78
2021/07/13 06:35:35;;;;;;;17.98;10.20;;;;;;;34.67;59.83;100954.91;1648327;87;20985;-77
2021/07/13 06:38:03;;;;;;;21.55;8.93;;;;;;;34.67;60.51;100961.11;1648605;87;21065;-78
2021/07/13 06:40:30;;;;;;;25.75;9.83;;;;;;;35.21;60.05;100962.67;1648594;87;21010;-78
2021/07/13 06:42:55;;;;;;;15.90;9.88;;;;;;;35.87;58.99;100961.34;1648523;87;21029;-82
2021/07/13 06:45:25;;;;;;;19.57;9.93;;;;;;;36.61;55.42;100962.08;1648403;87;21214;-78
2021/07/13 06:47:54;;;;;;;18.10;8.05;;;;;;;36.77;49.98;100960.56;1648608;87;21001;-79
2021/07/13 06:50:19;;;;;;;14.40;9.28;;;;;;;36.94;46.87;100945.98;1648984;86;21064;-81
2021/07/13 06:52:45;;;;;;;13.08;8.58;;;;;;;36.94;46.87;100945.98;1648598;87;21509;-77
2021/07/13 06:55:12;;;;;;;21.07;9.68;;;;;;;37.01;45.83;100966.95;1648637;87;20977;-82
2021/07/13 06:57:38;;;;;;;15.20;8.50;;;;;;;37.42;47.02;100959.41;1648634;87;21090;-78
2021/07/13 07:00:08;;;;;;;16.02;8.45;;;;;;;38.29;45.23;100961.73;1647598;86;20982;-81
2021/07/13 07:02:34;;;;;;;12.98;8.68;;;;;;;37.67;43.72;100965.09;1658152;86;21545;-77
2021/07/13 07:05:00;;;;;;;15.72;8.13;;;;;;;36.69;44.48;100970.38;1658657;86;20918;-78
2021/07/13 07:07:25;;;;;;;12.60;8.18;;;;;;;36.23;45.95;100970.59;1658513;86;21057;-78
2021/07/13 07:09:52;;;;;;;15.23;7.80;;;;;;;35.14;49.00;100966.37;1658356;86;21193;-78
2021/07/13 07:12:17;;;;;;;14.78;8.20;;;;;;;34.37;50.87;100975.19;1658470;86;21042;-77
2021/07/13 07:14:43;;;;;;;10.18;7.62;;;;;;;33.48;52.61;100976.61;1658285;86;21057;-75
2021/07/13 07:17:10;;;;;;;15.93;8.10;;;;;;;32.92;54.47;100984.81;1658400;86;21066;-76
2021/07/13 07:19:36;;;;;;;16.75;7.78;;;;;;;32.16;57.16;100983.31;1658484;86;21017;-76
2021/07/13 07:22:02;;;;;;;15.30;7.53;;;;;;;31.68;62.81;100987.22;1658438;86;21136;-77
2021/07/13 07:24:28;;;;;;;20.70;8.13;;;;;;;31.39;64.65;100989.73;1658612;86;21026;-78
2021/07/13 07:26:54;;;;;;;14.90;8.33;;;;;;;31.00;69.15;100988.92;1658336;86;20915;-75
2021/07/13 07:29:20;;;;;;;11.63;7.75;;;;;;;30.68;72.03;100985.36;1658349;86;20915;-77
2021/07/13 07:31:46;;;;;;;18.37;7.87;;;;;;;30.49;77.52;100984.23;1658592;86;20895;-76
2021/07/13 07:34:11;;;;;;;19.35;8.33;;;;;;;30.34;77.05;100983.33;1641306;86;21951;-80
2021/07/13 07:36:37;;;;;;;13.95;8.33;;;;;;;30.39;80.72;100982.97;1655639;86;20974;-77
2021/07/13 07:39:05;;;;;;;12.60;7.83;;;;;;;30.69;79.17;100989.73;1658555;85;21006;-80
2021/07/13 07:41:31;;;;;;;13.10;8.00;;;;;;;30.82;80.99;100985.25;1641385;86;21569;-78
2021/07/13 07:43:59;;;;;;;14.93;7.72;;;;;;;31.03;78.46;100985.95;1658596;86;21093;-77
2021/07/13 07:46:24;;;;;;;14.47;7.40;;;;;;;31.35;82.11;100981.34;1657940;86;20998;-77
2021/07/13 07:48:50;;;;;;;16.95;7.53;;;;;;;32.29;86.73;100985.88;1637837;86;20921;-74
2021/07/13 07:51:16;;;;;;;17.65;7.50;;;;;;;33.80;80.27;100982.03;1621941;88;21658;-81
2021/07/13 07:53:42;;;;;;;15.10;8.20;;;;;;;35.56;68.36;100978.23;1622007;88;20937;-81
2021/07/13 07:56:08;;;;;;;13.65;7.70;;;;;;;36.03;56.07;100979.70;1619157;88;21001;-76
2021/07/13 07:58:34;;;;;;;14.63;7.40;;;;;;;36.43;58.21;100980.47;1621962;88;21948;-74
2021/07/13 08:01:00;;;;;;;15.43;7.33;;;;;;;36.96;55.31;100980.06;1621766;88;21157;-74
2021/07/13 08:03:26;;;;;;;12.45;6.72;;;;;;;37.63;53.73;100983.47;1621874;88;20916;-77
2021/07/13 08:05:55;;;;;;;15.68;7.55;;;;;;;37.27;48.92;100983.46;1621857;88;20902;-76
2021/07/13 08:08:20;;;;;;;11.75;7.28;;;;;;;35.98;49.90;100989.23;1621439;88;21005;-76
2021/07/13 08:10:46;;;;;;;12.78;6.95;;;;;;;35.44;55.12;100987.19;1622017;88;21045;-76
2021/07/13 08:13:11;;;;;;;13.32;7.28;;;;;;;35.44;56.67;100992.80;1621890;88;21004;-78
2021/07/13 08:15:37;;;;;;;10.80;6.92;;;;;;;35.46;57.91;100993.17;1621650;88;20977;-76
2021/07/13 08:18:03;;;;;;;13.28;6.83;;;;;;;35.87;58.61;100992.20;1622052;88;21590;-77
2021/07/13 08:20:29;;;;;;;16.25;7.33;;;;;;;36.58;56.26;100989.62;1622383;88;20914;-75
2021/07/13 08:22:55;;;;;;;14.83;6.70;;;;;;;36.81;51.85;100987.38;1621833;88;21181;-77
2021/07/13 08:25:21;;;;;;;14.35;7.15;;;;;;;36.71;48.93;100989.80;1621933;88;20968;-76
2021/07/13 08:27:48;;;;;;;13.85;6.67;;;;;;;36.32;52.17;100992.66;1622041;88;21062;-76
2021/07/13 08:30:16;;;;;;;12.50;6.05;;;;;;;35.66;49.53;100982.11;1617647;87;21021;-78
2021/07/13 08:32:42;;;;;;;17.73;6.67;;;;;;;35.14;48.87;100983.80;1615003;87;21104;-78
2021/07/13 08:35:11;;;;;;;18.77;6.55;;;;;;;34.67;48.16;100980.10;1615085;88;21199;-78
2021/07/13 08:37:37;;;;;;;20.48;6.65;;;;;;;34.78;49.63;100981.39;1614567;88;21073;-77
2021/07/13 08:40:08;;;;;;;15.72;6.15;;;;;;;35.32;47.62;100974.53;1614889;88;21001;-77
2021/07/13 08:42:42;;;;;;;14.43;6.58;;;;;;;35.32;46.94;100977.34;1614095;87;21084;-77
2021/07/13 08:45:18;;;;;;;12.90;5.90;;;;;;;35.18;45.26;100978.34;1614912;88;21042;-77
2021/07/13 08:47:48;;;;;;;10.78;5.65;;;;;;;35.04;46.89;100978.48;1614685;88;21142;-77
2021/07/13 08:50:16;;;;;;;13.15;5.90;;;;;;;35.07;47.21;100976.89;1614838;88;21030;-78
2021/07/13 08:52:43;;;;;;;13.53;6.17;;;;;;;35.22;46.77;100972.07;1611819;88;20966;-78
2021/07/13 08:55:10;;;;;;;15.80;6.70;;;;;;;35.42;45.15;100972.20;1614769;88;21034;-78
2021/07/13 08:57:39;;;;;;;15.80;6.50;;;;;;;35.30;44.92;100976.98;1614823;88;21517;-78
2021/07/13 09:00:09;;;;;;;12.23;6.25;;;;;;;36.00;46.13;100977.75;1614762;88;21104;-79
2021/07/13 09:02:36;;;;;;;11.78;5.75;;;;;;;37.28;44.10;100973.79;1556432;91;21117;-75
2021/07/13 09:05:05;;;;;;;14.07;5.70;;;;;;;38.06;42.79;100969.77;1556398;92;21042;-79
2021/07/13 09:07:36;;;;;;;13.13;6.45;;;;;;;39.08;42.09;100977.28;1556219;92;21562;-80
2021/07/13 09:10:06;;;;;;;18.60;6.42;;;;;;;39.26;37.91;100971.72;1553758;92;21180;-80
2021/07/13 09:12:32;;;;;;;16.73;5.70;;;;;;;38.12;37.98;100974.25;1527194;94;21301;-77
2021/07/13 09:15:04;;;;;;;12.33;5.28;;;;;;;37.95;38.92;100977.09;1527498;94;21122;-77
2021/07/13 09:17:47;;;;;;;9.45;5.90;;;;;;;37.95;37.96;100978.50;1527360;94;21071;-79
2021/07/13 09:20:24;;;;;;;10.70;5.65;;;;;;;38.24;38.59;100976.96;1527300;94;21071;-79
2021/07/13 09:23:06;;;;;;;12.05;6.17;;;;;;;37.99;37.80;100974.80;1527576;94;21015;-74
2021/07/13 09:25:37;;;;;;;13.00;5.60;;;;;;;38.01;39.09;100974.55;1473808;96;21120;-75
2021/07/13 09:28:17;;;;;;;;;;;;;;;38.07;38.28;100975.59;1499090;95;21564;-80
2021/07/13 09:30:51;;;;;;;8.85;4.92;;;;;;;38.50;38.64;100973.06;1494222;94;20222;-79
2021/07/13 09:33:30;;;;;;;10.10;5.28;;;;;;;39.00;39.24;100980.13;1470083;97;21094;-76
2021/07/13 09:36:15;;;;;;;7.05;4.65;;;;;;;39.45;36.26;100981.25;1469834;96;21169;-77
2021/07/13 09:38:54;;;;;;;10.53;4.45;;;;;;;39.98;38.04;100981.58;1469998;96;21560;-78
2021/07/13 09:41:28;;;;;;;14.45;5.22;;;;;;;40.07;35.91;100980.25;1469823;96;21156;-76
2021/07/13 09:44:05;;;;;;;7.65;4.80;;;;;;;40.31;36.66;100977.05;1469802;96;21100;-79
2021/07/13 09:46:35;;;;;;;8.35;4.97;;;;;;;40.31;36.98;100978.47;1473098;96;21084;-79
2021/07/13 09:49:20;;;;;;;8.35;4.83;;;;;;;40.63;36.48;100983.78;1469753;96;21606;-76
2021/07/13 09:54:36;;;;;;;7.62;4.42;;;;;;;40.07;35.81;100983.08;1404300;101;21144;-81
2021/07/13 09:57:17;;;;;;;8.88;4.85;;;;;;;39.69;35.17;100980.28;1404252;102;21174;-78
2021/07/13 09:59:47;;;;;;;8.23;4.60;;;;;;;39.02;33.58;100984.71;1392030;103;21219;-79
2021/07/13 10:04:43;;;;;;;8.28;4.60;;;;;;;38.27;34.61;100982.52;1347528;106;21076;-76
2021/07/13 10:07:15;;;;;;;9.08;4.20;;;;;;;38.50;34.01;100980.11;1369344;103;21140;-76
2021/07/13 10:09:51;;;;;;;6.95;4.50;;;;;;;38.85;33.74;100983.98;1374380;103;21169;-76
2021/07/13 10:12:23;;;;;;;10.88;4.25;;;;;;;38.98;34.12;100981.22;1360802;105;21131;-82
2021/07/13 10:14:56;;;;;;;9.73;4.30;;;;;;;38.82;33.23;100973.57;1361221;104;21220;-75
2021/07/13 10:17:31;;;;;;;13.03;4.10;;;;;;;39.22;35.28;100977.47;1364792;105;21208;-81
2021/07/13 10:20:09;;;;;;;6.87;3.80;;;;;;;39.22;32.99;100976.69;1364696;105;21079;-76
2021/07/13 10:22:42;;;;;;;10.35;3.90;;;;;;;38.83;33.30;100977.20;1362417;104;21238;-77
2021/07/13 10:25:09;;;;;;;4.72;3.20;;;;;;;39.00;32.29;100977.31;1361618;105;21213;-76
2021/07/13 10:27:41;;;;;;;7.12;3.40;;;;;;;38.62;29.58;100977.17;1361394;105;21757;-75
2021/07/13 10:30:14;;;;;;;13.30;3.90;;;;;;;38.78;30.99;100958.81;1356564;104;21165;-77
2021/07/13 10:32:42;;;;;;;6.85;4.03;;;;;;;38.78;30.99;100958.81;1358854;105;22494;-78
2021/07/13 10:35:27;;;;;;;6.05;3.85;;;;;;;38.72;32.94;100973.27;1359060;105;21696;-77
2021/07/13 10:38:20;;;;;;;9.48;4.33;;;;;;;38.45;33.62;100982.08;1359505;105;21189;-77
2021/07/13 10:40:45;;;;;;;10.90;3.77;;;;;;;38.44;33.97;100969.83;1377318;102;21595;-78
2021/07/13 10:43:19;;;;;;;5.53;3.85;;;;;;;38.13;35.96;100974.45;1355526;105;21352;-78
2021/07/13 10:45:49;;;;;;;6.37;4.00;;;;;;;37.90;34.98;100976.80;1355367;105;21179;-78
2021/07/13 10:48:21;;;;;;;7.25;3.95;;;;;;;37.99;35.97;100977.00;1362829;105;21123;-74
2021/07/13 10:51:03;;;;;;;20.52;4.17;;;;;;;37.98;36.45;100978.23;1360142;105;21132;-76
2021/07/13 10:53:37;;;;;;;5.05;3.22;;;;;;;38.13;35.77;100971.01;1362426;104;21124;-75
2021/07/13 10:56:08;;;;;;;5.42;3.50;;;;;;;38.35;36.27;100968.41;1362635;105;21383;-77
2021/07/13 10:58:52;;;;;;;13.83;3.37;;;;;;;38.67;35.32;100961.76;1362799;105;21567;-74
2021/07/13 11:01:32;;;;;;;9.65;3.62;;;;;;;38.37;34.18;100960.94;1363232;102;21153;-76
2021/07/13 11:04:07;;;;;;;4.80;3.10;;;;;;;37.48;33.41;100970.35;1402347;102;21688;-79
2021/07/13 11:06:48;;;;;;;6.35;3.47;;;;;;;37.29;33.96;100964.91;1382422;102;21138;-76
2021/07/13 11:09:30;;;;;;;9.83;3.42;;;;;;;36.83;33.64;100968.69;1424379;96;21188;-76
2021/07/13 11:12:11;;;;;;;5.23;3.10;;;;;;;36.78;35.33;100964.36;1477987;97;21544;-75
2021/07/13 11:14:56;;;;;;;8.43;3.27;;;;;;;36.86;34.89;100963.61;1475271;97;21208;-79
2021/07/13 11:17:25;;;;;;;6.30;3.37;;;;;;;37.28;34.62;100953.48;1474410;97;21146;-77
2021/07/13 11:19:52;;;;;;;9.05;3.30;;;;;;;37.53;33.39;100966.20;1477090;95;21617;-76
2021/07/13 11:22:19;;;;;;;9.05;2.60;;;;;;;36.94;32.64;100961.44;1479486;95;21127;-77
2021/07/13 11:24:45;;;;;;;5.92;3.10;;;;;;;36.35;33.53;100956.72;1497821;95;21066;-75
2021/07/13 11:27:11;;;;;;;8.75;3.50;;;;;;;36.23;34.85;100951.73;1497602;95;21050;-78